createdAt,value
2022-10-24T00:01:43.180Z,0.52
2022-10-24T00:04:10.780Z,0.30
2022-10-24T00:06:39.919Z,2.25
2022-10-24T00:09:08.041Z,0.30
2022-10-24T00:11:35.820Z,0.30
2022-10-24T00:14:03.770Z,1.25
2022-10-24T00:16:31.846Z,0.40
2022-10-24T00:18:59.437Z,0.63
2022-10-24T00:21:27.331Z,0.40
2022-10-24T00:23:54.950Z,0.85
2022-10-24T00:26:22.507Z,2.92
2022-10-24T00:28:50.134Z,0.68
2022-10-24T00:31:19.582Z,0.30
2022-10-24T00:33:47.635Z,1.27
2022-10-24T00:36:18.776Z,0.73
2022-10-24T00:38:46.633Z,0.22
2022-10-24T00:41:27.365Z,0.20
2022-10-24T00:46:51.765Z,1.08
2022-10-24T00:49:24.192Z,0.40
2022-10-24T00:51:56.942Z,0.95
2022-10-24T00:54:24.698Z,1.25
2022-10-24T00:57:13.666Z,0.75
2022-10-24T00:59:44.383Z,0.77
2022-10-24T01:02:12.067Z,1.02
2022-10-24T01:04:39.918Z,0.30
2022-10-24T01:07:16.315Z,0.60
2022-10-24T01:10:03.435Z,0.40
2022-10-24T01:12:50.024Z,0.30
2022-10-24T01:15:42.481Z,0.50
2022-10-24T01:18:20.028Z,0.40
2022-10-24T01:21:29.154Z,0.70
2022-10-24T01:24:24.088Z,1.50
2022-10-24T01:27:03.733Z,0.20
2022-10-24T01:29:55.984Z,0.30
2022-10-24T01:32:48.442Z,0.30
2022-10-24T01:35:23.303Z,1.10
2022-10-24T01:38:01.158Z,0.30
2022-10-24T01:40:52.936Z,0.25
2022-10-24T01:43:29.442Z,0.77
2022-10-24T01:46:15.141Z,0.30
2022-10-24T01:48:47.525Z,0.30
2022-10-24T01:51:17.758Z,0.35
2022-10-24T01:53:47.760Z,0.95
2022-10-24T01:56:15.344Z,0.68
2022-10-24T01:58:43.091Z,0.60
2022-10-24T02:01:15.993Z,0.30
2022-10-24T02:03:51.915Z,0.20
2022-10-24T02:06:22.505Z,0.30
2022-10-24T02:11:20.310Z,0.20
2022-10-24T02:14:05.215Z,0.20
2022-10-24T02:16:33.386Z,0.20
2022-10-24T02:19:01.591Z,0.35
2022-10-24T02:21:34.124Z,0.65
2022-10-24T02:24:38.264Z,0.30
2022-10-24T02:27:21.563Z,0.30
2022-10-24T02:29:56.652Z,0.25
2022-10-24T02:32:34.656Z,0.40
2022-10-24T02:35:04.996Z,0.30
2022-10-24T02:37:36.222Z,0.50
2022-10-24T02:40:07.313Z,0.60
2022-10-24T02:42:38.331Z,0.30
2022-10-24T02:45:08.197Z,0.30
2022-10-24T02:47:38.086Z,0.30
2022-10-24T02:50:06.011Z,0.30
2022-10-24T02:52:35.051Z,0.30
2022-10-24T02:55:02.812Z,0.30
2022-10-24T02:57:30.993Z,0.30
2022-10-24T02:59:59.037Z,0.30
2022-10-24T03:02:26.882Z,0.30
2022-10-24T03:04:54.717Z,1.00
2022-10-24T03:07:25.336Z,0.30
2022-10-24T03:09:52.943Z,0.40
2022-10-24T03:12:20.590Z,0.63
2022-10-24T03:14:48.253Z,0.30
2022-10-24T03:17:15.909Z,0.30
2022-10-24T03:19:45.264Z,0.30
2022-10-24T03:22:13.126Z,0.30
2022-10-24T03:24:44.375Z,0.30
2022-10-24T03:27:23.107Z,0.30
2022-10-24T03:29:50.759Z,0.30
2022-10-24T03:32:21.213Z,0.30
2022-10-24T03:34:48.883Z,0.45
2022-10-24T03:37:16.522Z,0.30
2022-10-24T03:39:44.357Z,0.20
2022-10-24T03:42:12.141Z,0.30
2022-10-24T03:44:39.677Z,0.28
2022-10-24T03:47:07.273Z,0.30
2022-10-24T03:49:34.869Z,0.30
2022-10-24T03:52:02.454Z,0.30
2022-10-24T03:54:30.040Z,0.20
2022-10-24T03:56:57.797Z,0.30
2022-10-24T03:59:25.412Z,0.30
2022-10-24T04:01:53.043Z,0.30
2022-10-24T04:04:20.725Z,0.30
2022-10-24T04:06:48.309Z,0.30
2022-10-24T04:09:15.963Z,0.52
2022-10-24T04:11:43.630Z,0.25
2022-10-24T04:14:11.489Z,0.30
2022-10-24T04:16:39.143Z,0.30
2022-10-24T04:19:06.858Z,0.20
2022-10-24T04:21:34.418Z,0.60
2022-10-24T04:24:02.374Z,0.75
2022-10-24T04:26:30.040Z,0.30
2022-10-24T04:28:57.600Z,0.30
2022-10-24T04:31:25.214Z,0.30
2022-10-24T04:33:53.056Z,0.40
2022-10-24T04:36:21.254Z,0.20
2022-10-24T04:38:48.862Z,0.75
2022-10-24T04:41:16.505Z,0.30
2022-10-24T04:43:44.167Z,1.50
2022-10-24T04:46:11.833Z,1.70
2022-10-24T04:48:39.573Z,3.13
2022-10-24T04:51:07.217Z,1.73
2022-10-24T04:53:34.843Z,1.98
2022-10-24T04:56:02.531Z,2.03
2022-10-24T04:58:30.143Z,2.10
2022-10-24T05:00:57.755Z,2.20
2022-10-24T05:03:25.354Z,2.00
2022-10-24T05:05:52.939Z,2.40
2022-10-24T05:08:20.542Z,2.47
2022-10-24T05:10:48.200Z,2.20
2022-10-24T05:13:15.773Z,2.90
2022-10-24T05:15:43.764Z,2.17
2022-10-24T05:18:11.700Z,1.45
2022-10-24T05:23:11.859Z,1.75
2022-10-24T05:25:39.599Z,1.75
2022-10-24T05:28:07.215Z,1.85
2022-10-24T05:30:34.883Z,1.98
2022-10-24T05:33:02.497Z,1.55
2022-10-24T05:35:30.367Z,1.38
2022-10-24T05:37:58.003Z,1.40
2022-10-24T05:40:25.586Z,1.27
2022-10-24T05:42:53.180Z,1.20
2022-10-24T05:45:21.196Z,1.27
2022-10-24T05:47:48.841Z,1.40
2022-10-24T05:50:16.591Z,1.90
2022-10-24T05:52:46.965Z,3.63
2022-10-24T05:55:17.938Z,1.20
2022-10-24T05:57:46.457Z,1.42
2022-10-24T06:00:16.393Z,1.63
2022-10-24T06:02:44.551Z,1.02
2022-10-24T06:05:13.163Z,1.58
2022-10-24T06:07:44.392Z,1.10
2022-10-24T06:10:12.720Z,1.30
2022-10-24T06:12:40.767Z,1.27
2022-10-24T06:15:09.860Z,1.52
2022-10-24T06:17:37.524Z,1.35
2022-10-24T06:20:05.485Z,1.48
2022-10-24T06:22:33.088Z,1.50
2022-10-24T06:25:01.706Z,1.38
2022-10-24T06:27:29.257Z,1.40
2022-10-24T06:29:56.873Z,1.30
2022-10-24T06:32:24.840Z,1.42
2022-10-24T06:34:52.482Z,1.95
2022-10-24T06:37:20.249Z,1.60
2022-10-24T06:39:47.998Z,1.08
2022-10-24T06:42:15.766Z,2.05
2022-10-24T06:44:43.394Z,1.20
2022-10-24T06:47:11.232Z,1.88
2022-10-24T06:49:38.796Z,1.30
2022-10-24T06:52:06.509Z,1.35
2022-10-24T06:54:35.434Z,2.13
2022-10-24T06:57:03.061Z,1.98
2022-10-24T06:59:30.773Z,1.30
2022-10-24T07:02:01.847Z,1.70
2022-10-24T07:04:33.375Z,1.85
2022-10-24T07:07:00.950Z,2.45
2022-10-24T07:09:29.135Z,1.67
2022-10-24T07:11:57.074Z,2.03
2022-10-24T07:14:25.921Z,1.40
2022-10-24T07:16:53.653Z,1.65
2022-10-24T07:19:21.316Z,1.65
2022-10-24T07:21:49.249Z,1.40
2022-10-24T07:24:16.919Z,1.67
2022-10-24T07:26:44.543Z,1.40
2022-10-24T07:29:12.292Z,1.45
2022-10-24T07:31:40.046Z,1.42
2022-10-24T07:34:09.490Z,1.27
2022-10-24T07:36:41.546Z,1.50
2022-10-24T07:39:12.361Z,0.90
2022-10-24T07:41:42.024Z,1.48
2022-10-24T07:44:11.257Z,1.13
2022-10-24T07:46:41.412Z,1.73
2022-10-24T07:49:10.057Z,1.40
2022-10-24T07:51:38.189Z,2.42
2022-10-24T07:54:05.939Z,1.77
2022-10-24T07:56:33.541Z,1.15
2022-10-24T07:59:09.243Z,1.42
2022-10-24T08:01:41.765Z,2.00
2022-10-24T08:04:10.755Z,1.23
2022-10-24T08:06:38.394Z,1.50
2022-10-24T08:09:06.049Z,1.40
2022-10-24T08:11:33.719Z,1.45
2022-10-24T08:14:02.456Z,0.90
2022-10-24T08:16:30.140Z,1.27
2022-10-24T08:18:58.381Z,1.83
2022-10-24T08:21:26.432Z,1.85
2022-10-24T08:23:55.682Z,1.35
2022-10-24T08:26:25.353Z,1.48
2022-10-24T08:28:53.656Z,1.00
2022-10-24T08:31:23.251Z,1.48
2022-10-24T08:33:55.043Z,1.45
2022-10-24T08:36:30.193Z,1.08
2022-10-24T08:38:58.357Z,1.45
2022-10-24T08:41:43.668Z,1.10
2022-10-24T08:44:30.399Z,1.60
2022-10-24T08:47:18.303Z,1.83
2022-10-24T08:49:50.545Z,1.25
2022-10-24T08:52:34.296Z,1.15
2022-10-24T08:55:44.407Z,1.45
2022-10-24T08:58:27.140Z,1.48
2022-10-24T09:00:59.316Z,1.85
2022-10-24T09:03:56.691Z,1.50
2022-10-24T09:06:28.348Z,1.80
2022-10-24T09:09:10.927Z,1.30
2022-10-24T09:11:58.943Z,1.98
2022-10-24T09:14:32.925Z,1.40
2022-10-24T09:20:07.649Z,2.17
2022-10-24T09:22:38.417Z,1.13
2022-10-24T09:25:14.960Z,1.15
2022-10-24T09:27:43.433Z,1.75
2022-10-24T09:30:30.084Z,0.98
2022-10-24T09:33:26.586Z,1.30
2022-10-24T09:35:57.558Z,1.65
2022-10-24T09:38:27.484Z,1.10
2022-10-24T09:41:21.058Z,1.15
2022-10-24T09:43:56.708Z,1.75
2022-10-24T09:46:45.121Z,1.77
2022-10-24T09:49:12.728Z,1.60
2022-10-24T09:52:03.597Z,1.55
2022-10-24T09:54:34.511Z,1.50
2022-10-24T09:57:02.065Z,1.50
2022-10-24T09:59:42.235Z,1.35
2022-10-24T10:02:29.567Z,0.95
2022-10-24T10:05:03.382Z,1.20
2022-10-24T10:07:48.356Z,1.20
2022-10-24T10:10:19.064Z,2.30
2022-10-24T10:12:56.143Z,1.60
2022-10-24T10:15:33.017Z,1.45
2022-10-24T10:18:04.985Z,1.23
2022-10-24T10:20:39.928Z,1.67
2022-10-24T10:23:24.583Z,1.20
2022-10-24T10:26:16.071Z,1.20
2022-10-24T10:28:46.940Z,1.05
2022-10-24T10:31:17.580Z,1.30
2022-10-24T10:33:51.094Z,1.45
2022-10-24T10:36:27.982Z,1.75
2022-10-24T10:39:32.380Z,1.33
2022-10-24T10:42:20.036Z,1.60
2022-10-24T10:45:11.750Z,1.80
2022-10-24T10:47:48.269Z,1.10
2022-10-24T10:50:43.912Z,1.77
2022-10-24T10:53:35.134Z,1.52
2022-10-24T10:56:28.703Z,1.20
2022-10-24T10:58:59.409Z,2.25
2022-10-24T11:01:45.551Z,1.50
2022-10-24T11:04:24.218Z,1.83
2022-10-24T11:06:58.089Z,1.67
2022-10-24T11:09:31.607Z,1.80
2022-10-24T11:12:28.590Z,1.23
2022-10-24T11:15:08.933Z,1.70
2022-10-24T11:20:29.479Z,1.00
2022-10-24T11:23:40.975Z,1.55
2022-10-24T11:26:15.329Z,1.35
2022-10-24T11:28:54.431Z,1.30
2022-10-24T11:31:26.433Z,2.05
2022-10-24T11:34:02.426Z,1.48
2022-10-24T11:37:00.618Z,1.58
2022-10-24T11:39:33.312Z,2.00
2022-10-24T11:42:10.730Z,1.30
2022-10-24T11:44:59.144Z,1.50
2022-10-24T11:47:26.866Z,1.73
2022-10-24T11:50:10.408Z,1.60
2022-10-24T11:52:43.649Z,2.00
2022-10-24T11:55:37.336Z,2.15
2022-10-24T11:58:16.003Z,1.80
2022-10-24T12:01:04.906Z,1.42
2022-10-24T12:03:47.979Z,1.73
2022-10-24T12:06:46.437Z,1.70
2022-10-24T12:09:14.042Z,2.17
2022-10-24T12:12:11.477Z,2.63
2022-10-24T12:15:00.388Z,1.30
2022-10-24T12:17:47.155Z,2.13
2022-10-24T12:20:21.278Z,1.92
2022-10-24T12:22:50.056Z,2.45
2022-10-24T12:25:48.885Z,1.98
2022-10-24T12:28:26.407Z,1.80
2022-10-24T12:31:16.068Z,2.50
2022-10-24T12:33:45.573Z,3.20
2022-10-24T12:36:13.603Z,2.85
2022-10-24T12:38:42.495Z,2.45
2022-10-24T12:41:34.627Z,2.30
2022-10-24T12:44:33.970Z,2.38
2022-10-24T12:47:28.990Z,2.78
2022-10-24T12:49:58.672Z,2.05
2022-10-24T12:52:32.313Z,2.97
2022-10-24T12:55:00.322Z,2.20
2022-10-24T12:57:39.348Z,2.35
2022-10-24T13:00:29.606Z,3.15
2022-10-24T13:03:08.815Z,2.38
2022-10-24T13:06:02.334Z,2.33
2022-10-24T13:08:47.472Z,2.47
2022-10-24T13:11:52.231Z,2.20
2022-10-24T13:14:59.518Z,3.67
2022-10-24T13:17:43.802Z,2.50
2022-10-24T13:20:14.578Z,2.92
2022-10-24T13:22:43.147Z,4.97
2022-10-24T13:25:21.343Z,2.85
2022-10-24T13:28:22.395Z,3.10
2022-10-24T13:30:59.207Z,2.85
2022-10-24T13:33:32.645Z,2.95
2022-10-24T13:36:09.800Z,3.00
2022-10-24T13:38:46.573Z,3.05
2022-10-24T13:41:38.820Z,2.83
2022-10-24T13:44:12.526Z,3.70
2022-10-24T13:46:54.722Z,2.60
2022-10-24T13:49:34.036Z,3.22
2022-10-24T13:52:10.427Z,3.20
2022-10-24T13:54:39.089Z,2.72
2022-10-24T13:57:30.634Z,2.30
2022-10-24T14:00:01.612Z,4.20
2022-10-24T14:02:41.505Z,2.15
2022-10-24T14:05:30.003Z,3.30
2022-10-24T14:07:59.985Z,3.00
2022-10-24T14:10:28.189Z,4.03
2022-10-24T14:12:57.339Z,2.58
2022-10-24T14:15:31.801Z,2.40
2022-10-24T14:18:08.941Z,3.38
2022-10-24T14:20:37.838Z,2.08
2022-10-24T14:23:37.679Z,4.32
2022-10-24T14:26:08.945Z,2.20
2022-10-24T14:28:59.625Z,2.10
2022-10-24T14:31:34.935Z,1.95
2022-10-24T14:34:06.220Z,2.10
2022-10-24T14:36:37.883Z,2.25
2022-10-24T14:39:16.595Z,2.35
2022-10-24T14:41:44.688Z,4.05
2022-10-24T14:44:15.973Z,2.45
2022-10-24T14:46:45.431Z,3.10
2022-10-24T14:49:39.428Z,2.50
2022-10-24T14:52:22.216Z,3.05
2022-10-24T14:55:06.556Z,3.40
2022-10-24T14:57:36.859Z,2.80
2022-10-24T15:00:08.553Z,2.00
2022-10-24T15:02:42.896Z,3.17
2022-10-24T15:05:29.667Z,2.33
2022-10-24T15:08:28.151Z,3.88
2022-10-24T15:11:31.594Z,2.30
2022-10-24T15:14:06.583Z,3.92
2022-10-24T15:16:37.959Z,2.60
2022-10-24T15:19:11.189Z,2.28
2022-10-24T15:21:43.062Z,2.13
2022-10-24T15:24:24.964Z,2.85
2022-10-24T15:26:53.362Z,3.03
2022-10-24T15:29:23.288Z,2.40
2022-10-24T15:31:52.240Z,2.40
2022-10-24T15:34:22.194Z,2.97
2022-10-24T15:36:52.259Z,3.22
2022-10-24T15:39:22.686Z,3.78
2022-10-24T15:41:50.781Z,3.80
2022-10-24T15:44:25.923Z,2.45
2022-10-24T15:46:54.578Z,2.60
2022-10-24T15:49:22.456Z,2.47
2022-10-24T15:51:51.540Z,2.10
2022-10-24T15:54:21.855Z,3.85
2022-10-24T15:56:50.048Z,2.65
2022-10-24T15:59:20.247Z,4.35
2022-10-24T16:01:54.660Z,2.50
2022-10-24T16:04:22.759Z,2.67
2022-10-24T16:06:51.352Z,4.97
2022-10-24T16:09:26.625Z,3.40
2022-10-24T16:11:54.938Z,2.72
2022-10-24T16:14:26.197Z,2.83
2022-10-24T16:16:55.248Z,2.92
2022-10-24T16:19:26.486Z,2.67
2022-10-24T16:21:58.679Z,3.20
2022-10-24T16:24:27.911Z,4.53
2022-10-24T16:26:55.722Z,2.85
2022-10-24T16:29:23.547Z,2.53
2022-10-24T16:31:51.303Z,3.15
2022-10-24T16:34:18.941Z,2.53
2022-10-24T16:36:46.607Z,2.88
2022-10-24T16:39:16.918Z,3.10
2022-10-24T16:41:46.406Z,3.85
2022-10-24T16:44:14.690Z,2.90
2022-10-24T16:46:42.841Z,3.10
2022-10-24T16:49:10.499Z,4.43
2022-10-24T16:51:43.990Z,3.70
2022-10-24T16:54:12.515Z,3.00
2022-10-24T16:56:40.481Z,5.13
2022-10-24T16:59:10.374Z,3.33
2022-10-24T17:01:43.390Z,2.60
2022-10-24T17:04:11.056Z,3.47
2022-10-24T17:06:38.593Z,3.50
2022-10-24T17:09:06.207Z,4.13
2022-10-24T17:11:45.015Z,3.35
2022-10-24T17:14:16.261Z,3.50
2022-10-24T17:16:44.402Z,4.90
2022-10-24T17:19:16.507Z,3.60
2022-10-24T17:21:51.569Z,2.92
2022-10-24T17:24:22.539Z,3.22
2022-10-24T17:26:51.077Z,3.90
2022-10-24T17:29:31.059Z,4.25
2022-10-24T17:31:59.187Z,3.17
2022-10-24T17:34:27.000Z,3.53
2022-10-24T17:37:01.370Z,3.88
2022-10-24T17:39:33.406Z,3.72
2022-10-24T17:42:01.111Z,3.70
2022-10-24T17:44:29.147Z,3.33
2022-10-24T17:46:58.159Z,3.47
2022-10-24T17:49:26.141Z,4.45
2022-10-24T17:51:53.784Z,4.32
2022-10-24T17:54:21.676Z,3.58
2022-10-24T17:56:49.609Z,4.40
2022-10-24T17:59:17.214Z,2.67
2022-10-24T18:01:45.138Z,3.85
2022-10-24T18:04:13.172Z,3.53
2022-10-24T18:06:43.360Z,3.95
2022-10-24T18:09:12.342Z,3.33
2022-10-24T18:11:40.313Z,3.90
2022-10-24T18:14:08.022Z,4.55
2022-10-24T18:16:37.633Z,5.20
2022-10-24T18:19:09.237Z,4.75
2022-10-24T18:21:37.001Z,5.60
2022-10-24T18:24:07.012Z,4.88
2022-10-24T18:26:34.618Z,5.75
2022-10-24T18:29:02.365Z,5.03
2022-10-24T18:31:30.552Z,5.20
2022-10-24T18:34:04.925Z,4.75
2022-10-24T18:36:37.075Z,3.50
2022-10-24T18:39:04.928Z,3.70
2022-10-24T18:41:47.921Z,3.70
2022-10-24T18:44:27.772Z,6.57
2022-10-24T18:47:01.246Z,4.93
2022-10-24T18:49:30.021Z,5.22
2022-10-24T18:52:15.871Z,4.05
2022-10-24T18:55:02.363Z,5.38
2022-10-24T18:57:33.027Z,4.30
2022-10-24T19:02:49.856Z,4.00
2022-10-24T19:05:44.097Z,3.88
2022-10-24T19:08:23.589Z,4.70
2022-10-24T19:10:53.428Z,4.32
2022-10-24T19:13:21.573Z,4.22
2022-10-24T19:16:00.749Z,4.43
2022-10-24T19:18:32.683Z,5.53
2022-10-24T19:21:00.652Z,5.75
2022-10-24T19:23:29.625Z,6.55
2022-10-24T19:25:58.736Z,4.70
2022-10-24T19:28:26.314Z,5.22
2022-10-24T19:30:54.098Z,4.78
2022-10-24T19:33:25.103Z,4.65
2022-10-24T19:35:52.766Z,7.30
2022-10-24T19:38:20.660Z,6.18
2022-10-24T19:40:54.960Z,8.50
2022-10-24T19:43:24.799Z,7.13
2022-10-24T19:46:07.615Z,4.57
2022-10-24T19:48:43.018Z,4.60
2022-10-24T19:51:12.800Z,6.22
2022-10-24T19:53:42.555Z,5.50
2022-10-24T19:56:13.073Z,4.30
2022-10-24T20:01:11.315Z,7.30
2022-10-24T20:03:40.891Z,6.03
2022-10-24T20:06:08.976Z,4.10
2022-10-24T20:08:36.971Z,4.25
2022-10-24T20:11:05.860Z,3.97
2022-10-24T20:13:34.819Z,5.07
2022-10-24T20:16:05.677Z,7.55
2022-10-24T20:18:35.650Z,8.57
2022-10-24T20:21:05.883Z,5.90
2022-10-24T20:23:33.846Z,5.30
2022-10-24T20:26:05.133Z,4.90
2022-10-24T20:28:41.018Z,5.00
2022-10-24T20:31:08.687Z,4.60
2022-10-24T20:33:36.328Z,4.43
2022-10-24T20:36:04.149Z,4.72
2022-10-24T20:38:33.347Z,5.15
2022-10-24T20:41:02.507Z,5.65
2022-10-24T20:43:30.482Z,4.45
2022-10-24T20:45:58.327Z,4.82
2022-10-24T20:48:25.994Z,5.10
2022-10-24T20:50:53.611Z,3.75
2022-10-24T20:53:21.343Z,3.78
2022-10-24T20:55:48.886Z,4.45
2022-10-24T20:58:16.565Z,4.03
2022-10-24T21:00:44.143Z,3.47
2022-10-24T21:03:14.347Z,4.28
2022-10-24T21:05:42.012Z,4.88
2022-10-24T21:08:09.645Z,5.03
2022-10-24T21:10:37.220Z,3.72
2022-10-24T21:13:04.763Z,4.57
2022-10-24T21:15:32.411Z,3.60
2022-10-24T21:18:00.036Z,3.13
2022-10-24T21:20:27.629Z,2.72
2022-10-24T21:22:55.207Z,3.88
2022-10-24T21:25:22.838Z,2.83
2022-10-24T21:27:50.497Z,3.17
2022-10-24T21:30:18.541Z,2.90
2022-10-24T21:32:46.362Z,3.95
2022-10-24T21:35:14.057Z,3.28
2022-10-24T21:37:41.724Z,2.85
2022-10-24T21:40:09.875Z,3.47
2022-10-24T21:42:37.782Z,3.05
2022-10-24T21:45:05.912Z,3.10
2022-10-24T21:47:33.775Z,4.63
2022-10-24T21:50:01.443Z,3.53
2022-10-24T21:52:29.105Z,3.65
2022-10-24T21:54:56.996Z,2.67
2022-10-24T21:57:24.770Z,2.72
2022-10-24T21:59:52.307Z,4.22
2022-10-24T22:02:20.172Z,2.95
2022-10-24T22:04:48.013Z,3.10
2022-10-24T22:07:15.645Z,2.63
2022-10-24T22:09:43.336Z,3.13
2022-10-24T22:12:11.013Z,2.95
2022-10-24T22:14:38.758Z,3.10
2022-10-24T22:17:06.438Z,2.85
2022-10-24T22:19:34.156Z,4.55
2022-10-24T22:22:01.709Z,2.45
2022-10-24T22:24:29.429Z,2.35
2022-10-24T22:26:57.005Z,2.78
2022-10-24T22:29:24.903Z,4.00
2022-10-24T22:31:53.427Z,2.65
2022-10-24T22:34:24.509Z,2.42
2022-10-24T22:37:13.369Z,2.47
2022-10-24T22:39:41.489Z,3.30
2022-10-24T22:42:13.496Z,2.88
2022-10-24T22:44:44.680Z,3.28
2022-10-24T22:47:33.993Z,2.65
2022-10-24T22:50:19.381Z,3.80
2022-10-24T22:52:48.705Z,3.00
2022-10-24T22:55:44.056Z,2.00
2022-10-24T22:58:11.871Z,2.60
2022-10-24T23:00:39.692Z,2.33
2022-10-24T23:03:22.321Z,2.78
2022-10-24T23:06:31.490Z,3.72
2022-10-24T23:08:59.184Z,1.98
2022-10-24T23:11:27.110Z,2.58
2022-10-24T23:13:54.998Z,3.47
2022-10-24T23:16:29.541Z,2.22
2022-10-24T23:18:57.430Z,2.63
2022-10-24T23:21:37.038Z,3.33
2022-10-24T23:24:09.038Z,2.28
2022-10-24T23:26:59.706Z,2.40
2022-10-24T23:29:35.308Z,2.05
2022-10-24T23:32:03.780Z,2.92
2022-10-24T23:34:31.732Z,3.50
2022-10-24T23:37:04.668Z,3.40
2022-10-24T23:39:34.858Z,3.47
2022-10-24T23:42:03.247Z,2.45
2022-10-24T23:44:31.007Z,2.78
2022-10-24T23:47:26.047Z,2.20
2022-10-24T23:50:09.219Z,2.53
2022-10-24T23:53:16.251Z,3.53
2022-10-24T23:55:44.261Z,3.00
2022-10-24T23:58:12.258Z,2.35
